createdAt,value
2023-04-16T00:00:39.168Z,1003.2
2023-04-16T00:03:52.841Z,1003.3
2023-04-16T00:06:40.767Z,1003.3
2023-04-16T00:09:28.106Z,1003.3
2023-04-16T00:12:15.429Z,1003.4
2023-04-16T00:15:02.852Z,1003.4
2023-04-16T00:17:50.921Z,1003.4
2023-04-16T00:20:38.293Z,1003.4
2023-04-16T00:23:25.633Z,1003.3
2023-04-16T00:26:12.994Z,1003.4
2023-04-16T00:29:01.406Z,1003.4
2023-04-16T00:31:48.810Z,1003.5
2023-04-16T00:34:36.204Z,1003.5
2023-04-16T00:37:23.604Z,1003.5
2023-04-16T00:40:10.949Z,1003.5
2023-04-16T00:42:58.330Z,1003.5
2023-04-16T00:45:45.723Z,1003.5
2023-04-16T00:48:33.297Z,1003.5
2023-04-16T00:51:22.839Z,1003.5
2023-04-16T00:54:11.700Z,1003.5
2023-04-16T00:56:59.047Z,1003.7
2023-04-16T00:59:47.688Z,1003.6
2023-04-16T01:02:35.608Z,1003.6
2023-04-16T01:05:23.506Z,1003.6
2023-04-16T01:08:11.178Z,1003.6
2023-04-16T01:11:02.399Z,1003.5
2023-04-16T01:13:50.272Z,1003.6
2023-04-16T01:16:37.711Z,1003.5
2023-04-16T01:19:25.057Z,1003.5
2023-04-16T01:22:12.330Z,1003.5
2023-04-16T01:24:59.786Z,1003.5
2023-04-16T01:27:47.225Z,1003.5
2023-04-16T01:30:35.425Z,1003.5
2023-04-16T01:33:22.814Z,1003.5
2023-04-16T01:36:10.045Z,1003.5
2023-04-16T01:38:57.482Z,1003.5
2023-04-16T01:41:44.808Z,1003.5
2023-04-16T01:44:32.249Z,1003.5
2023-04-16T01:47:19.552Z,1003.5
2023-04-16T01:50:07.113Z,1003.5
2023-04-16T01:52:55.404Z,1003.5
2023-04-16T01:55:43.481Z,1003.5
2023-04-16T01:58:30.988Z,1003.6
2023-04-16T02:01:18.885Z,1003.6
2023-04-16T02:04:06.567Z,1003.5
2023-04-16T02:06:54.309Z,1003.6
2023-04-16T02:09:41.541Z,1003.5
2023-04-16T02:12:29.304Z,1003.5
2023-04-16T02:15:16.571Z,1003.6
2023-04-16T02:18:04.166Z,1003.6
2023-04-16T02:20:51.571Z,1003.6
2023-04-16T02:23:38.813Z,1003.6
2023-04-16T02:26:26.105Z,1003.7
2023-04-16T02:29:14.349Z,1003.7
2023-04-16T02:32:04.298Z,1003.7
2023-04-16T02:34:51.700Z,1003.7
2023-04-16T02:37:39.495Z,1003.7
2023-04-16T02:40:26.813Z,1003.7
2023-04-16T02:43:14.278Z,1003.7
2023-04-16T02:46:01.612Z,1003.8
2023-04-16T02:48:49.018Z,1003.7
2023-04-16T02:51:36.285Z,1003.8
2023-04-16T02:54:23.630Z,1003.7
2023-04-16T02:57:11.113Z,1003.9
2023-04-16T02:59:58.579Z,1003.8
2023-04-16T03:02:46.298Z,1003.7
2023-04-16T03:05:33.652Z,1003.7
2023-04-16T03:08:20.923Z,1003.8
2023-04-16T03:11:08.198Z,1003.8
2023-04-16T03:13:55.486Z,1003.8
2023-04-16T03:16:42.876Z,1003.9
2023-04-16T03:19:30.246Z,1003.9
2023-04-16T03:22:17.569Z,1003.9
2023-04-16T03:25:05.319Z,1003.9
2023-04-16T03:27:53.392Z,1003.9
2023-04-16T03:30:40.868Z,1003.9
2023-04-16T03:33:28.297Z,1003.9
2023-04-16T03:36:15.984Z,1003.9
2023-04-16T03:39:03.262Z,1004
2023-04-16T03:41:50.564Z,1004
2023-04-16T03:44:37.832Z,1004.1
2023-04-16T03:47:25.546Z,1004
2023-04-16T03:50:12.888Z,1004.1
2023-04-16T03:53:00.640Z,1004.1
2023-04-16T03:55:48.045Z,1004.2
2023-04-16T03:58:36.714Z,1004.3
2023-04-16T04:01:24.108Z,1004.2
2023-04-16T04:04:11.676Z,1004.3
2023-04-16T04:06:59.712Z,1004.3
2023-04-16T04:09:47.138Z,1004.4
2023-04-16T04:12:34.344Z,1004.4
2023-04-16T04:15:21.670Z,1004.4
2023-04-16T04:18:09.002Z,1004.3
2023-04-16T04:20:56.327Z,1004.3
2023-04-16T04:23:43.667Z,1004.4
2023-04-16T04:26:31.073Z,1004.4
2023-04-16T04:29:18.541Z,1004.5
2023-04-16T04:32:06.276Z,1004.5
2023-04-16T04:34:53.547Z,1004.5
2023-04-16T04:37:41.130Z,1004.5
2023-04-16T04:40:28.590Z,1004.6
2023-04-16T04:43:16.031Z,1004.6
2023-04-16T04:46:03.571Z,1004.6
2023-04-16T04:48:50.963Z,1004.6
2023-04-16T04:51:38.287Z,1004.6
2023-04-16T04:54:25.897Z,1004.7
2023-04-16T04:57:13.741Z,1004.6
2023-04-16T05:00:01.674Z,1004.7
2023-04-16T05:02:51.094Z,1004.7
2023-04-16T05:05:38.544Z,1004.7
2023-04-16T05:08:26.003Z,1004.7
2023-04-16T05:11:13.336Z,1004.7
2023-04-16T05:14:00.925Z,1004.8
2023-04-16T05:16:48.438Z,1004.8
2023-04-16T05:19:35.850Z,1004.8
2023-04-16T05:22:23.261Z,1004.8
2023-04-16T05:25:10.569Z,1004.9
2023-04-16T05:27:57.954Z,1004.9
2023-04-16T05:30:45.641Z,1004.9
2023-04-16T05:33:33.075Z,1004.9
2023-04-16T05:36:20.323Z,1004.9
2023-04-16T05:39:07.734Z,1005
2023-04-16T05:41:55.826Z,1005.1
2023-04-16T05:44:43.301Z,1005
2023-04-16T05:47:30.692Z,1005
2023-04-16T05:50:18.037Z,1005
2023-04-16T05:53:05.758Z,1005.1
2023-04-16T05:55:54.603Z,1005.1
2023-04-16T05:58:41.884Z,1005.1
2023-04-16T06:01:29.315Z,1005
2023-04-16T06:04:17.834Z,1005.1
2023-04-16T06:07:06.190Z,1005.1
2023-04-16T06:09:53.628Z,1005.2
2023-04-16T06:12:41.004Z,1005.2
2023-04-16T06:15:28.329Z,1005.3
2023-04-16T06:18:15.667Z,1005.2
2023-04-16T06:21:03.039Z,1005.2
2023-04-16T06:23:50.717Z,1005.3
2023-04-16T06:26:39.223Z,1005.4
2023-04-16T06:29:36.861Z,1005.4
2023-04-16T06:32:28.332Z,1005.4
2023-04-16T06:35:15.992Z,1005.4
2023-04-16T06:38:04.820Z,1005.4
2023-04-16T06:40:52.180Z,1005.5
2023-04-16T06:43:39.527Z,1005.5
2023-04-16T06:46:26.953Z,1005.5
2023-04-16T06:49:14.450Z,1005.4
2023-04-16T06:52:03.825Z,1005.5
2023-04-16T06:54:52.680Z,1005.5
2023-04-16T06:57:40.090Z,1005.5
2023-04-16T07:00:27.548Z,1005.5
2023-04-16T07:03:15.256Z,1005.6
2023-04-16T07:06:02.680Z,1005.6
2023-04-16T07:08:50.121Z,1005.6
2023-04-16T07:11:37.691Z,1005.6
2023-04-16T07:14:25.569Z,1005.7
2023-04-16T07:17:12.951Z,1005.6
2023-04-16T07:20:00.509Z,1005.7
2023-04-16T07:22:48.968Z,1005.7
2023-04-16T07:25:36.419Z,1005.7
2023-04-16T07:28:23.788Z,1005.8
2023-04-16T07:31:11.323Z,1005.8
2023-04-16T07:33:58.616Z,1005.8
2023-04-16T07:36:46.066Z,1005.8
2023-04-16T07:39:33.407Z,1005.8
2023-04-16T07:42:20.772Z,1005.9
2023-04-16T07:45:08.102Z,1005.9
2023-04-16T07:47:56.285Z,1005.9
2023-04-16T07:50:43.622Z,1005.8
2023-04-16T07:53:31.094Z,1005.9
2023-04-16T07:56:18.578Z,1005.9
2023-04-16T07:59:20.941Z,1005.9
2023-04-16T08:02:10.775Z,1006
2023-04-16T08:05:00.666Z,1006.1
2023-04-16T08:07:48.284Z,1006.1
2023-04-16T08:10:35.735Z,1006.1
2023-04-16T08:13:23.951Z,1006.1
2023-04-16T08:16:11.401Z,1006.1
2023-04-16T08:18:58.694Z,1006.1
2023-04-16T08:21:46.219Z,1006.1
2023-04-16T08:24:33.584Z,1006.1
2023-04-16T08:27:20.867Z,1006.1
2023-04-16T08:30:08.215Z,1006.2
2023-04-16T08:32:56.004Z,1006.3
2023-04-16T08:35:43.560Z,1006.2
2023-04-16T08:38:31.557Z,1006.2
2023-04-16T08:41:19.172Z,1006.3
2023-04-16T08:44:08.274Z,1006.3
2023-04-16T08:47:05.050Z,1006.3
2023-04-16T08:49:58.515Z,1006.4
2023-04-16T08:52:48.982Z,1006.4
2023-04-16T08:55:37.953Z,1006.3
2023-04-16T08:58:30.604Z,1006.3
2023-04-16T09:01:20.308Z,1006.4
2023-04-16T09:04:09.353Z,1006.5
2023-04-16T09:06:58.806Z,1006.4
2023-04-16T09:09:48.871Z,1006.5
2023-04-16T09:12:38.384Z,1006.5
2023-04-16T09:15:28.522Z,1006.6
2023-04-16T09:18:16.817Z,1006.6
2023-04-16T09:21:05.727Z,1006.6
2023-04-16T09:23:55.661Z,1006.6
2023-04-16T09:26:44.883Z,1006.6
2023-04-16T09:29:33.717Z,1006.6
2023-04-16T09:32:22.987Z,1006.7
2023-04-16T09:35:11.928Z,1006.6
2023-04-16T09:38:00.394Z,1006.6
2023-04-16T09:40:48.129Z,1006.6
2023-04-16T09:43:51.912Z,1006.7
2023-04-16T09:46:42.162Z,1006.7
2023-04-16T09:49:29.563Z,1006.7
2023-04-16T09:52:20.715Z,1006.7
2023-04-16T09:55:08.458Z,1006.6
2023-04-16T09:57:56.557Z,1006.7
2023-04-16T10:00:45.763Z,1006.7
2023-04-16T10:03:33.447Z,1006.8
2023-04-16T10:06:22.293Z,1006.7
2023-04-16T10:09:11.972Z,1006.8
2023-04-16T10:11:59.551Z,1006.8
2023-04-16T10:14:49.527Z,1006.8
2023-04-16T10:17:37.658Z,1006.8
2023-04-16T10:20:25.397Z,1006.8
2023-04-16T10:23:13.440Z,1006.8
2023-04-16T10:26:01.155Z,1006.8
2023-04-16T10:28:48.508Z,1006.9
2023-04-16T10:31:36.405Z,1006.8
2023-04-16T10:34:25.492Z,1006.9
2023-04-16T10:37:13.843Z,1006.9
2023-04-16T10:40:03.379Z,1006.9
2023-04-16T10:43:08.377Z,1007
2023-04-16T10:46:03.622Z,1007
2023-04-16T10:49:08.626Z,1006.9
2023-04-16T10:52:02.412Z,1007
2023-04-16T10:54:56.436Z,1007.1
2023-04-16T10:57:46.098Z,1007.1
2023-04-16T11:00:35.087Z,1007
2023-04-16T11:03:35.391Z,1007
2023-04-16T11:06:27.510Z,1007.2
2023-04-16T11:09:16.548Z,1007.2
2023-04-16T11:12:30.504Z,1007.1
2023-04-16T11:15:21.890Z,1007.2
2023-04-16T11:18:12.834Z,1007.2
2023-04-16T11:21:05.042Z,1007.2
2023-04-16T11:23:55.088Z,1007.3
2023-04-16T11:26:43.175Z,1007.2
2023-04-16T11:29:30.604Z,1007.2
2023-04-16T11:32:18.143Z,1007.3
2023-04-16T11:35:06.996Z,1007.3
2023-04-16T11:38:00.050Z,1007.4
2023-04-16T11:40:47.621Z,1007.3
2023-04-16T11:43:36.158Z,1007.2
2023-04-16T11:49:24.332Z,1007.4
2023-04-16T11:52:13.616Z,1007.4
2023-04-16T11:55:12.041Z,1007.3
2023-04-16T11:58:00.160Z,1007.4
2023-04-16T12:00:57.571Z,1007.4
2023-04-16T12:03:45.830Z,1007.4
2023-04-16T12:06:33.968Z,1007.4
2023-04-16T12:09:21.534Z,1007.4
2023-04-16T12:12:09.591Z,1007.4
2023-04-16T12:15:15.201Z,1007.5
2023-04-16T12:18:02.664Z,1007.5
2023-04-16T12:20:54.121Z,1007.5
2023-04-16T12:23:41.548Z,1007.5
2023-04-16T12:26:28.948Z,1007.5
2023-04-16T12:29:23.045Z,1007.4
2023-04-16T12:32:12.557Z,1007.4
2023-04-16T12:35:07.447Z,1007.5
2023-04-16T12:37:55.836Z,1007.4
2023-04-16T12:40:44.077Z,1007.4
2023-04-16T12:43:31.645Z,1007.4
2023-04-16T12:46:20.502Z,1007.4
2023-04-16T12:49:08.138Z,1007.4
2023-04-16T12:51:56.436Z,1007.4
2023-04-16T12:54:44.134Z,1007.5
2023-04-16T12:57:31.556Z,1007.4
2023-04-16T13:00:20.276Z,1007.5
2023-04-16T13:03:07.882Z,1007.5
2023-04-16T13:05:55.955Z,1007.5
2023-04-16T13:08:43.295Z,1007.5
2023-04-16T13:11:31.951Z,1007.5
2023-04-16T13:14:20.221Z,1007.4
2023-04-16T13:17:07.724Z,1007.5
2023-04-16T13:19:55.363Z,1007.4
2023-04-16T13:22:42.948Z,1007.5
2023-04-16T13:25:30.803Z,1007.4
2023-04-16T13:28:18.311Z,1007.5
2023-04-16T13:31:06.558Z,1007.5
2023-04-16T13:33:54.219Z,1007.5
2023-04-16T13:36:41.729Z,1007.5
2023-04-16T13:39:29.251Z,1007.6
2023-04-16T13:42:16.707Z,1007.6
2023-04-16T13:45:04.543Z,1007.6
2023-04-16T13:47:54.122Z,1007.6
2023-04-16T13:50:41.815Z,1007.6
2023-04-16T13:53:29.271Z,1007.5
2023-04-16T13:56:16.884Z,1007.6
2023-04-16T13:59:04.457Z,1007.6
2023-04-16T14:01:52.159Z,1007.6
2023-04-16T14:04:39.883Z,1007.5
2023-04-16T14:07:27.369Z,1007.6
2023-04-16T14:10:15.062Z,1007.6
2023-04-16T14:13:03.328Z,1007.6
2023-04-16T14:15:50.818Z,1007.7
2023-04-16T14:18:39.232Z,1007.7
2023-04-16T14:21:27.040Z,1007.6
2023-04-16T14:24:15.815Z,1007.6
2023-04-16T14:27:03.185Z,1007.6
2023-04-16T14:29:50.723Z,1007.6
2023-04-16T14:32:38.314Z,1007.6
2023-04-16T14:35:25.916Z,1007.6
2023-04-16T14:38:14.240Z,1007.7
2023-04-16T14:41:01.763Z,1007.7
2023-04-16T14:43:49.711Z,1007.7
2023-04-16T14:46:37.242Z,1007.7
2023-04-16T14:49:25.737Z,1007.7
2023-04-16T14:52:13.356Z,1007.7
2023-04-16T14:55:00.982Z,1007.7
2023-04-16T14:57:50.144Z,1007.8
2023-04-16T15:00:37.684Z,1007.8
2023-04-16T15:03:25.617Z,1007.8
2023-04-16T15:06:14.533Z,1007.9
2023-04-16T15:09:02.142Z,1007.8
2023-04-16T15:11:49.700Z,1007.9
2023-04-16T15:14:37.572Z,1007.9
2023-04-16T15:17:25.109Z,1007.9
2023-04-16T15:20:12.704Z,1007.9
2023-04-16T15:23:00.815Z,1008
2023-04-16T15:25:48.456Z,1007.9
2023-04-16T15:28:35.875Z,1007.9
2023-04-16T15:31:23.478Z,1008
2023-04-16T15:34:11.363Z,1008
2023-04-16T15:36:59.093Z,1008
2023-04-16T15:39:46.552Z,1008
2023-04-16T15:42:34.363Z,1008.1
2023-04-16T15:45:21.921Z,1008
2023-04-16T15:48:09.557Z,1008.1
2023-04-16T15:50:57.374Z,1008.1
2023-04-16T15:53:44.933Z,1008.1
2023-04-16T15:56:34.387Z,1008.2
2023-04-16T15:59:22.112Z,1008.2
2023-04-16T16:02:09.904Z,1008.3
2023-04-16T16:04:57.769Z,1008.2
2023-04-16T16:07:45.600Z,1008.3
2023-04-16T16:10:33.303Z,1008.2
2023-04-16T16:13:20.804Z,1008.3
2023-04-16T16:16:08.316Z,1008.2
2023-04-16T16:18:56.017Z,1008.3
2023-04-16T16:21:43.498Z,1008.4
2023-04-16T16:24:31.060Z,1008.4
2023-04-16T16:27:18.525Z,1008.4
2023-04-16T16:30:07.267Z,1008.4
2023-04-16T16:32:56.218Z,1008.5
2023-04-16T16:35:43.947Z,1008.4
2023-04-16T16:38:31.673Z,1008.5
2023-04-16T16:41:19.825Z,1008.5
2023-04-16T16:44:07.688Z,1008.5
2023-04-16T16:46:55.199Z,1008.5
2023-04-16T16:49:42.543Z,1008.6
2023-04-16T16:52:30.562Z,1008.6
2023-04-16T16:55:18.807Z,1008.6
2023-04-16T16:58:07.049Z,1008.6
2023-04-16T17:00:54.458Z,1008.7
2023-04-16T17:03:41.958Z,1008.8
2023-04-16T17:06:29.404Z,1008.7
2023-04-16T17:09:17.722Z,1008.7
2023-04-16T17:12:05.493Z,1008.8
2023-04-16T17:14:53.094Z,1008.8
2023-04-16T17:17:40.688Z,1008.8
2023-04-16T17:20:28.841Z,1008.8
2023-04-16T17:23:17.565Z,1008.8
2023-04-16T17:26:05.252Z,1008.9
2023-04-16T17:28:52.569Z,1008.9
2023-04-16T17:31:42.212Z,1008.8
2023-04-16T17:34:29.603Z,1008.9
2023-04-16T17:37:16.967Z,1009
2023-04-16T17:40:04.646Z,1009
2023-04-16T17:42:54.467Z,1009
2023-04-16T17:45:41.899Z,1009.1
2023-04-16T17:48:29.251Z,1009.1
2023-04-16T17:51:16.694Z,1009.1
2023-04-16T17:54:04.146Z,1009.1
2023-04-16T17:56:51.975Z,1009.2
2023-04-16T17:59:39.278Z,1009.2
2023-04-16T18:02:27.530Z,1009.2
2023-04-16T18:05:15.313Z,1009.3
2023-04-16T18:08:04.313Z,1009.3
2023-04-16T18:10:52.230Z,1009.3
2023-04-16T18:13:40.186Z,1009.4
2023-04-16T18:16:28.197Z,1009.5
2023-04-16T18:19:15.691Z,1009.5
2023-04-16T18:22:03.121Z,1009.5
2023-04-16T18:24:50.734Z,1009.5
2023-04-16T18:27:38.255Z,1009.6
2023-04-16T18:30:26.869Z,1009.6
2023-04-16T18:36:04.670Z,1009.7
2023-04-16T18:39:00.343Z,1009.8
2023-04-16T18:41:49.370Z,1009.8
2023-04-16T18:44:36.775Z,1009.8
2023-04-16T18:47:24.270Z,1009.8
2023-04-16T18:50:11.913Z,1009.8
2023-04-16T18:52:59.307Z,1009.8
2023-04-16T18:55:46.917Z,1009.8
2023-04-16T18:58:38.346Z,1009.9
2023-04-16T19:01:26.056Z,1009.9
2023-04-16T19:04:13.554Z,1009.9
2023-04-16T19:07:01.009Z,1009.9
2023-04-16T19:09:48.814Z,1009.9
2023-04-16T19:12:36.227Z,1010
2023-04-16T19:15:23.673Z,1009.9
2023-04-16T19:18:11.151Z,1010
2023-04-16T19:20:58.583Z,1009.9
2023-04-16T19:23:46.544Z,1010
2023-04-16T19:26:33.967Z,1010
2023-04-16T19:29:21.319Z,1010
2023-04-16T19:32:08.732Z,1010
2023-04-16T19:34:56.016Z,1010
2023-04-16T19:37:43.453Z,1010
2023-04-16T19:40:30.705Z,1010.1
2023-04-16T19:46:06.593Z,1010.1
2023-04-16T19:48:54.116Z,1010
2023-04-16T19:51:41.715Z,1010.1
2023-04-16T19:54:30.706Z,1009.9
2023-04-16T19:57:19.425Z,1010
2023-04-16T20:00:07.356Z,1010.1
2023-04-16T20:02:56.489Z,1010.1
2023-04-16T20:05:43.975Z,1010.1
2023-04-16T20:08:34.493Z,1010.1
2023-04-16T20:11:21.867Z,1010.1
2023-04-16T20:14:09.478Z,1010
2023-04-16T20:16:57.020Z,1010
2023-04-16T20:19:44.509Z,1010.1
2023-04-16T20:22:33.980Z,1010
2023-04-16T20:25:21.551Z,1009.9
2023-04-16T20:28:10.891Z,1010
2023-04-16T20:31:00.805Z,1010
2023-04-16T20:33:48.230Z,1009.9
2023-04-16T20:36:35.424Z,1010
2023-04-16T20:39:22.828Z,1010
2023-04-16T20:42:11.835Z,1010
2023-04-16T20:44:59.866Z,1010.1
2023-04-16T20:47:47.393Z,1010.1
2023-04-16T20:50:35.614Z,1010.1
2023-04-16T20:53:22.851Z,1010.1
2023-04-16T20:56:10.178Z,1010.1
2023-04-16T20:58:59.423Z,1010.2
2023-04-16T21:01:46.905Z,1010.1
2023-04-16T21:04:34.624Z,1010.1
2023-04-16T21:07:22.092Z,1010.2
2023-04-16T21:10:09.411Z,1010.2
2023-04-16T21:12:57.144Z,1010.2
2023-04-16T21:15:44.622Z,1010.3
2023-04-16T21:18:32.208Z,1010.2
2023-04-16T21:21:19.925Z,1010.2
2023-04-16T21:24:07.710Z,1010.2
2023-04-16T21:26:55.056Z,1010.2
2023-04-16T21:29:42.525Z,1010.2
2023-04-16T21:32:29.848Z,1010.2
2023-04-16T21:35:17.294Z,1010.2
2023-04-16T21:38:04.953Z,1010.2
2023-04-16T21:40:52.331Z,1010.3
2023-04-16T21:43:40.265Z,1010.2
2023-04-16T21:46:27.988Z,1010.3
2023-04-16T21:49:15.421Z,1010.2
2023-04-16T21:52:02.723Z,1010.3
2023-04-16T21:54:50.290Z,1010.2
2023-04-16T21:57:37.764Z,1010.4
2023-04-16T22:00:25.168Z,1010.3
2023-04-16T22:03:12.825Z,1010.4
2023-04-16T22:06:01.923Z,1010.4
2023-04-16T22:08:50.230Z,1010.4
2023-04-16T22:11:38.036Z,1010.3
2023-04-16T22:14:25.330Z,1010.3
2023-04-16T22:17:14.039Z,1010.3
2023-04-16T22:20:02.108Z,1010.3
2023-04-16T22:22:53.549Z,1010.3
2023-04-16T22:25:43.194Z,1010.3
2023-04-16T22:28:30.698Z,1010.3
2023-04-16T22:31:18.142Z,1010.4
2023-04-16T22:34:06.099Z,1010.4
2023-04-16T22:36:53.773Z,1010.4
2023-04-16T22:39:41.515Z,1010.4
2023-04-16T22:42:29.074Z,1010.4
2023-04-16T22:45:16.424Z,1010.4
2023-04-16T22:48:04.230Z,1010.4
2023-04-16T22:50:51.595Z,1010.4
2023-04-16T22:53:38.934Z,1010.5
2023-04-16T22:56:26.426Z,1010.5
2023-04-16T22:59:15.611Z,1010.4
2023-04-16T23:02:03.116Z,1010.5
2023-04-16T23:04:50.621Z,1010.5
2023-04-16T23:07:37.973Z,1010.4
2023-04-16T23:10:25.373Z,1010.5
2023-04-16T23:13:12.794Z,1010.4
2023-04-16T23:16:01.508Z,1010.4
2023-04-16T23:18:50.836Z,1010.4
2023-04-16T23:21:38.560Z,1010.3
2023-04-16T23:24:26.785Z,1010.4
2023-04-16T23:27:14.354Z,1010.4
2023-04-16T23:30:02.229Z,1010.4
2023-04-16T23:32:52.952Z,1010.4
2023-04-16T23:35:40.792Z,1010.4
2023-04-16T23:38:28.033Z,1010.4
2023-04-16T23:41:15.400Z,1010.3
2023-04-16T23:44:02.770Z,1010.4
2023-04-16T23:46:50.590Z,1010.4
2023-04-16T23:49:38.056Z,1010.3
2023-04-16T23:52:25.680Z,1010.4
2023-04-16T23:55:13.121Z,1010.4
2023-04-16T23:58:00.532Z,1010.4
